Terminal Aerodrome Forecast
Issued by NWS Amarillo, TX

Home | Current Version | Previous Version | Text Only | Print | Product List | Glossary On
Versions: 1 2 3 4 5 6 7 8 9 10 11 12 13 14 15 16 17 18
347
FTUS44 KAMA 231140
TAFAMA
TAF
KAMA 231140Z 2312/2412 20011KT P6SM VCSH FEW030 BKN060
     FM231600 17016KT P6SM SCT040 BKN070 PROB30 2321/2403 -TSRA
      BKN040CB OVC060CB
     FM240300 18010KT P6SM BKN250=

USA.gov is the U.S. government's official web portal to all federal, state and local government web resources and services.